sensor_id;sensor_type;location;lat;lon;timestamp;temperature;humidity
8676;DHT22;4375;52.486;13.424;2024-03-23T00:54:08;9.20;99.90
8676;DHT22;4375;52.486;13.424;2024-03-23T00:56:33;9.20;99.90
8676;DHT22;4375;52.486;13.424;2024-03-23T00:58:59;9.20;99.90
8676;DHT22;4375;52.486;13.424;2024-03-23T01:01:24;9.30;99.90
8676;DHT22;4375;52.486;13.424;2024-03-23T01:03:50;9.40;99.90
8676;DHT22;4375;52.486;13.424;2024-03-23T01:06:15;9.30;99.90
8676;DHT22;4375;52.486;13.424;2024-03-23T01:08:41;9.30;99.90
8676;DHT22;4375;52.486;13.424;2024-03-23T01:11:06;9.30;99.90
8676;DHT22;4375;52.486;13.424;2024-03-23T01:13:32;9.30;99.90
8676;DHT22;4375;52.486;13.424;2024-03-23T01:15:57;9.30;99.90
8676;DHT22;4375;52.486;13.424;2024-03-23T01:18:23;9.30;99.90
8676;DHT22;4375;52.486;13.424;2024-03-23T01:20:49;9.30;99.90
8676;DHT22;4375;52.486;13.424;2024-03-23T01:23:15;9.30;99.90
8676;DHT22;4375;52.486;13.424;2024-03-23T01:25:40;9.30;99.90
8676;DHT22;4375;52.486;13.424;2024-03-23T01:28:07;9.20;99.90
8676;DHT22;4375;52.486;13.424;2024-03-23T01:30:33;9.20;99.90
8676;DHT22;4375;52.486;13.424;2024-03-23T01:32:59;9.20;99.90
8676;DHT22;4375;52.486;13.424;2024-03-23T01:35:25;9.10;99.90
8676;DHT22;4375;52.486;13.424;2024-03-23T01:37:51;9.20;99.90
8676;DHT22;4375;52.486;13.424;2024-03-23T01:40:17;9.20;99.90
8676;DHT22;4375;52.486;13.424;2024-03-23T01:42:42;9.20;99.90
8676;DHT22;4375;52.486;13.424;2024-03-23T01:45:09;9.20;99.90
8676;DHT22;4375;52.486;13.424;2024-03-23T01:47:35;9.30;99.90
8676;DHT22;4375;52.486;13.424;2024-03-23T01:50:02;9.20;99.90
8676;DHT22;4375;52.486;13.424;2024-03-23T01:52:28;9.00;99.90
8676;DHT22;4375;52.486;13.424;2024-03-23T01:54:54;9.20;99.90
8676;DHT22;4375;52.486;13.424;2024-03-23T01:57:19;9.10;99.90
8676;DHT22;4375;52.486;13.424;2024-03-23T01:59:48;9.20;99.90
8676;DHT22;4375;52.486;13.424;2024-03-23T02:02:14;9.30;99.90
8676;DHT22;4375;52.486;13.424;2024-03-23T02:04:40;9.30;99.90
8676;DHT22;4375;52.486;13.424;2024-03-23T02:07:08;9.20;99.90
8676;DHT22;4375;52.486;13.424;2024-03-23T02:09:34;9.20;99.90
8676;DHT22;4375;52.486;13.424;2024-03-23T02:12:02;9.30;99.90
8676;DHT22;4375;52.486;13.424;2024-03-23T02:14:27;9.30;99.90
8676;DHT22;4375;52.486;13.424;2024-03-23T02:16:53;9.20;99.90
8676;DHT22;4375;52.486;13.424;2024-03-23T02:19:18;9.20;99.90
8676;DHT22;4375;52.486;13.424;2024-03-23T02:21:44;9.20;99.90
8676;DHT22;4375;52.486;13.424;2024-03-23T02:24:09;9.20;99.90
8676;DHT22;4375;52.486;13.424;2024-03-23T02:26:35;9.20;99.90
8676;DHT22;4375;52.486;13.424;2024-03-23T02:29:01;9.20;99.90
8676;DHT22;4375;52.486;13.424;2024-03-23T02:31:26;9.20;99.90
8676;DHT22;4375;52.486;13.424;2024-03-23T02:33:52;9.20;99.90
8676;DHT22;4375;52.486;13.424;2024-03-23T02:36:17;9.20;99.90
8676;DHT22;4375;52.486;13.424;2024-03-23T02:38:43;9.20;99.90
8676;DHT22;4375;52.486;13.424;2024-03-23T02:41:08;9.20;99.90
8676;DHT22;4375;52.486;13.424;2024-03-23T02:43:34;9.30;99.90
8676;DHT22;4375;52.486;13.424;2024-03-23T02:45:59;9.20;99.90
8676;DHT22;4375;52.486;13.424;2024-03-23T02:48:26;9.20;99.90
8676;DHT22;4375;52.486;13.424;2024-03-23T02:50:51;9.30;99.90
8676;DHT22;4375;52.486;13.424;2024-03-23T02:53:17;9.20;99.90
8676;DHT22;4375;52.486;13.424;2024-03-23T02:55:42;9.20;99.90
8676;DHT22;4375;52.486;13.424;2024-03-23T02:58:08;9.10;99.90
8676;DHT22;4375;52.486;13.424;2024-03-23T03:00:34;9.10;99.90
8676;DHT22;4375;52.486;13.424;2024-03-23T03:02:59;9.10;99.90
8676;DHT22;4375;52.486;13.424;2024-03-23T03:05:25;9.00;99.90
8676;DHT22;4375;52.486;13.424;2024-03-23T03:07:50;9.10;99.90
8676;DHT22;4375;52.486;13.424;2024-03-23T03:10:16;9.10;99.90
8676;DHT22;4375;52.486;13.424;2024-03-23T03:12:41;9.10;99.90
8676;DHT22;4375;52.486;13.424;2024-03-23T03:15:08;9.10;99.90
8676;DHT22;4375;52.486;13.424;2024-03-23T03:17:34;9.00;99.90
8676;DHT22;4375;52.486;13.424;2024-03-23T03:20:00;8.90;99.90
8676;DHT22;4375;52.486;13.424;2024-03-23T03:22:25;9.00;99.90
8676;DHT22;4375;52.486;13.424;2024-03-23T03:24:51;8.90;99.90
8676;DHT22;4375;52.486;13.424;2024-03-23T03:27:17;8.90;99.90
8676;DHT22;4375;52.486;13.424;2024-03-23T03:29:42;9.00;99.90
8676;DHT22;4375;52.486;13.424;2024-03-23T03:32:08;9.00;99.90
8676;DHT22;4375;52.486;13.424;2024-03-23T03:34:33;9.00;99.90
8676;DHT22;4375;52.486;13.424;2024-03-23T03:37:00;9.00;99.90
8676;DHT22;4375;52.486;13.424;2024-03-23T03:39:25;8.90;99.90
8676;DHT22;4375;52.486;13.424;2024-03-23T03:41:51;9.00;99.90
8676;DHT22;4375;52.486;13.424;2024-03-23T03:44:17;9.00;99.90
8676;DHT22;4375;52.486;13.424;2024-03-23T03:46:43;8.80;99.90
8676;DHT22;4375;52.486;13.424;2024-03-23T03:49:08;8.60;99.90
8676;DHT22;4375;52.486;13.424;2024-03-23T03:51:34;8.70;99.90
8676;DHT22;4375;52.486;13.424;2024-03-23T03:54:00;8.70;99.90
8676;DHT22;4375;52.486;13.424;2024-03-23T03:56:26;8.70;99.90
8676;DHT22;4375;52.486;13.424;2024-03-23T03:58:52;8.70;99.90
8676;DHT22;4375;52.486;13.424;2024-03-23T04:01:18;8.80;99.90
8676;DHT22;4375;52.486;13.424;2024-03-23T04:03:43;8.70;99.90
8676;DHT22;4375;52.486;13.424;2024-03-23T04:06:09;8.60;99.90
8676;DHT22;4375;52.486;13.424;2024-03-23T04:08:35;8.60;99.90
8676;DHT22;4375;52.486;13.424;2024-03-23T04:11:01;8.50;99.90
8676;DHT22;4375;52.486;13.424;2024-03-23T04:13:27;8.50;99.90
8676;DHT22;4375;52.486;13.424;2024-03-23T04:15:56;8.50;99.90
8676;DHT22;4375;52.486;13.424;2024-03-23T04:18:22;8.60;99.90
8676;DHT22;4375;52.486;13.424;2024-03-23T04:20:51;8.60;99.90
8676;DHT22;4375;52.486;13.424;2024-03-23T04:23:17;8.50;99.90
8676;DHT22;4375;52.486;13.424;2024-03-23T04:25:43;8.50;99.90
8676;DHT22;4375;52.486;13.424;2024-03-23T04:28:08;8.40;99.90
8676;DHT22;4375;52.486;13.424;2024-03-23T04:30:34;8.40;99.90
8676;DHT22;4375;52.486;13.424;2024-03-23T04:32:59;8.50;99.90
8676;DHT22;4375;52.486;13.424;2024-03-23T04:35:26;8.40;99.90
8676;DHT22;4375;52.486;13.424;2024-03-23T04:37:52;8.40;99.90
8676;DHT22;4375;52.486;13.424;2024-03-23T04:40:18;8.40;99.90
8676;DHT22;4375;52.486;13.424;2024-03-23T04:42:44;8.40;99.90
8676;DHT22;4375;52.486;13.424;2024-03-23T04:45:09;8.40;99.90
8676;DHT22;4375;52.486;13.424;2024-03-23T04:47:36;8.40;99.90
8676;DHT22;4375;52.486;13.424;2024-03-23T04:50:03;8.30;99.90
8676;DHT22;4375;52.486;13.424;2024-03-23T04:52:29;8.20;99.90
8676;DHT22;4375;52.486;13.424;2024-03-23T04:54:54;8.00;99.90
8676;DHT22;4375;52.486;13.424;2024-03-23T04:57:20;7.70;99.90
8676;DHT22;4375;52.486;13.424;2024-03-23T04:59:46;7.70;99.90
8676;DHT22;4375;52.486;13.424;2024-03-23T05:02:12;7.70;99.90
8676;DHT22;4375;52.486;13.424;2024-03-23T05:04:38;7.80;99.90
8676;DHT22;4375;52.486;13.424;2024-03-23T05:07:04;7.90;99.90
8676;DHT22;4375;52.486;13.424;2024-03-23T05:09:30;7.90;99.90
8676;DHT22;4375;52.486;13.424;2024-03-23T05:11:56;8.00;99.90
8676;DHT22;4375;52.486;13.424;2024-03-23T05:14:22;7.90;99.90
8676;DHT22;4375;52.486;13.424;2024-03-23T05:16:47;8.00;99.90
8676;DHT22;4375;52.486;13.424;2024-03-23T05:19:13;8.10;99.90
8676;DHT22;4375;52.486;13.424;2024-03-23T05:21:38;8.10;99.90
8676;DHT22;4375;52.486;13.424;2024-03-23T05:24:13;8.00;99.90
8676;DHT22;4375;52.486;13.424;2024-03-23T05:26:39;7.90;99.90
8676;DHT22;4375;52.486;13.424;2024-03-23T05:29:05;7.80;99.90
8676;DHT22;4375;52.486;13.424;2024-03-23T05:31:32;7.80;99.90
8676;DHT22;4375;52.486;13.424;2024-03-23T05:33:58;7.90;99.90
8676;DHT22;4375;52.486;13.424;2024-03-23T05:36:23;7.90;99.90
8676;DHT22;4375;52.486;13.424;2024-03-23T05:38:51;7.90;99.90
8676;DHT22;4375;52.486;13.424;2024-03-23T05:41:17;7.90;99.90
8676;DHT22;4375;52.486;13.424;2024-03-23T05:43:42;8.00;99.90
8676;DHT22;4375;52.486;13.424;2024-03-23T05:46:08;8.00;99.90
8676;DHT22;4375;52.486;13.424;2024-03-23T05:48:34;7.90;99.90
8676;DHT22;4375;52.486;13.424;2024-03-23T05:51:00;7.90;99.90
8676;DHT22;4375;52.486;13.424;2024-03-23T05:53:26;8.00;99.90
8676;DHT22;4375;52.486;13.424;2024-03-23T05:55:59;8.00;99.90
8676;DHT22;4375;52.486;13.424;2024-03-23T05:58:25;8.00;99.90
8676;DHT22;4375;52.486;13.424;2024-03-23T06:01:00;8.10;99.90
8676;DHT22;4375;52.486;13.424;2024-03-23T06:03:27;8.00;99.90
8676;DHT22;4375;52.486;13.424;2024-03-23T06:05:52;8.00;99.90
8676;DHT22;4375;52.486;13.424;2024-03-23T06:08:21;8.10;99.90
8676;DHT22;4375;52.486;13.424;2024-03-23T06:10:47;8.10;99.90
8676;DHT22;4375;52.486;13.424;2024-03-23T06:13:13;8.10;99.90
8676;DHT22;4375;52.486;13.424;2024-03-23T06:15:39;8.10;99.90
8676;DHT22;4375;52.486;13.424;2024-03-23T06:18:05;8.00;99.90
8676;DHT22;4375;52.486;13.424;2024-03-23T06:20:31;8.10;99.90
8676;DHT22;4375;52.486;13.424;2024-03-23T06:22:57;8.10;99.90
8676;DHT22;4375;52.486;13.424;2024-03-23T06:25:22;8.20;99.90
8676;DHT22;4375;52.486;13.424;2024-03-23T06:27:48;8.20;99.90
8676;DHT22;4375;52.486;13.424;2024-03-23T06:30:13;8.00;99.90
8676;DHT22;4375;52.486;13.424;2024-03-23T06:32:39;7.80;99.90
8676;DHT22;4375;52.486;13.424;2024-03-23T06:35:05;7.80;99.90
8676;DHT22;4375;52.486;13.424;2024-03-23T06:37:34;7.90;99.90
8676;DHT22;4375;52.486;13.424;2024-03-23T06:39:59;7.80;99.90
8676;DHT22;4375;52.486;13.424;2024-03-23T06:42:25;7.80;99.90
8676;DHT22;4375;52.486;13.424;2024-03-23T06:44:51;7.70;99.90
8676;DHT22;4375;52.486;13.424;2024-03-23T06:47:16;7.70;99.90
8676;DHT22;4375;52.486;13.424;2024-03-23T06:49:42;7.70;99.90
8676;DHT22;4375;52.486;13.424;2024-03-23T06:52:07;7.70;99.90
8676;DHT22;4375;52.486;13.424;2024-03-23T06:54:33;7.70;99.90
8676;DHT22;4375;52.486;13.424;2024-03-23T06:56:59;7.70;99.90
8676;DHT22;4375;52.486;13.424;2024-03-23T06:59:24;7.60;99.90
8676;DHT22;4375;52.486;13.424;2024-03-23T07:01:50;7.70;99.90
8676;DHT22;4375;52.486;13.424;2024-03-23T07:04:16;7.80;99.90
8676;DHT22;4375;52.486;13.424;2024-03-23T07:06:45;7.80;99.90
8676;DHT22;4375;52.486;13.424;2024-03-23T07:09:11;7.80;99.90
8676;DHT22;4375;52.486;13.424;2024-03-23T07:11:36;7.70;99.90
8676;DHT22;4375;52.486;13.424;2024-03-23T07:14:02;7.70;99.90
8676;DHT22;4375;52.486;13.424;2024-03-23T07:16:30;7.80;99.90
8676;DHT22;4375;52.486;13.424;2024-03-23T07:18:56;7.80;99.90
8676;DHT22;4375;52.486;13.424;2024-03-23T07:21:22;7.80;99.90
8676;DHT22;4375;52.486;13.424;2024-03-23T07:23:50;7.70;99.90
8676;DHT22;4375;52.486;13.424;2024-03-23T07:26:16;7.90;99.90
8676;DHT22;4375;52.486;13.424;2024-03-23T07:28:43;8.00;99.90
8676;DHT22;4375;52.486;13.424;2024-03-23T07:31:11;7.90;99.90
8676;DHT22;4375;52.486;13.424;2024-03-23T07:33:42;7.70;99.90
8676;DHT22;4375;52.486;13.424;2024-03-23T07:36:08;7.90;99.90
8676;DHT22;4375;52.486;13.424;2024-03-23T07:38:33;7.80;99.90
8676;DHT22;4375;52.486;13.424;2024-03-23T07:41:09;8.00;99.90
8676;DHT22;4375;52.486;13.424;2024-03-23T07:43:39;8.10;99.90
8676;DHT22;4375;52.486;13.424;2024-03-23T07:46:06;7.80;99.90
8676;DHT22;4375;52.486;13.424;2024-03-23T07:48:32;7.80;99.90
8676;DHT22;4375;52.486;13.424;2024-03-23T07:51:09;7.80;99.90
8676;DHT22;4375;52.486;13.424;2024-03-23T07:53:35;7.70;99.90
8676;DHT22;4375;52.486;13.424;2024-03-23T07:56:07;7.80;99.90
8676;DHT22;4375;52.486;13.424;2024-03-23T07:58:34;7.80;99.90
8676;DHT22;4375;52.486;13.424;2024-03-23T08:01:07;7.90;99.90
8676;DHT22;4375;52.486;13.424;2024-03-23T08:03:36;7.80;99.90
8676;DHT22;4375;52.486;13.424;2024-03-23T08:06:09;7.60;99.90
8676;DHT22;4375;52.486;13.424;2024-03-23T08:08:35;7.70;99.90
8676;DHT22;4375;52.486;13.424;2024-03-23T08:11:01;7.70;99.90
8676;DHT22;4375;52.486;13.424;2024-03-23T08:13:27;7.60;99.90
8676;DHT22;4375;52.486;13.424;2024-03-23T08:16:00;7.60;99.90
8676;DHT22;4375;52.486;13.424;2024-03-23T08:18:26;7.50;99.90
8676;DHT22;4375;52.486;13.424;2024-03-23T08:21:05;7.50;99.90
8676;DHT22;4375;52.486;13.424;2024-03-23T08:23:32;7.40;99.90
8676;DHT22;4375;52.486;13.424;2024-03-23T08:26:06;7.50;99.90
8676;DHT22;4375;52.486;13.424;2024-03-23T08:28:34;7.40;99.90
8676;DHT22;4375;52.486;13.424;2024-03-23T08:31:11;7.30;99.90
8676;DHT22;4375;52.486;13.424;2024-03-23T08:33:38;7.30;99.90
8676;DHT22;4375;52.486;13.424;2024-03-23T08:36:08;7.30;99.90
8676;DHT22;4375;52.486;13.424;2024-03-23T08:38:34;7.20;99.90
8676;DHT22;4375;52.486;13.424;2024-03-23T08:41:01;7.10;99.90
8676;DHT22;4375;52.486;13.424;2024-03-23T08:43:28;7.20;99.90
8676;DHT22;4375;52.486;13.424;2024-03-23T08:46:15;7.20;99.90
8676;DHT22;4375;52.486;13.424;2024-03-23T08:48:47;7.20;99.90
8676;DHT22;4375;52.486;13.424;2024-03-23T08:51:15;7.10;99.90
8676;DHT22;4375;52.486;13.424;2024-03-23T08:53:41;7.20;99.90
8676;DHT22;4375;52.486;13.424;2024-03-23T08:56:11;7.30;99.90
8676;DHT22;4375;52.486;13.424;2024-03-23T08:58:38;7.30;99.90
8676;DHT22;4375;52.486;13.424;2024-03-23T09:01:11;7.20;99.90
8676;DHT22;4375;52.486;13.424;2024-03-23T09:03:38;7.30;99.90
8676;DHT22;4375;52.486;13.424;2024-03-23T09:06:08;7.10;99.90
8676;DHT22;4375;52.486;13.424;2024-03-23T09:08:34;6.80;99.90
8676;DHT22;4375;52.486;13.424;2024-03-23T09:11:04;6.70;99.90
8676;DHT22;4375;52.486;13.424;2024-03-23T09:13:34;6.80;99.90
8676;DHT22;4375;52.486;13.424;2024-03-23T09:16:00;6.70;99.90
8676;DHT22;4375;52.486;13.424;2024-03-23T09:18:26;6.80;99.90
8676;DHT22;4375;52.486;13.424;2024-03-23T09:20:51;6.70;99.90
8676;DHT22;4375;52.486;13.424;2024-03-23T09:23:18;6.70;99.90
8676;DHT22;4375;52.486;13.424;2024-03-23T09:25:44;6.70;99.90
8676;DHT22;4375;52.486;13.424;2024-03-23T09:28:10;6.60;99.90
8676;DHT22;4375;52.486;13.424;2024-03-23T09:30:36;6.60;99.90
8676;DHT22;4375;52.486;13.424;2024-03-23T09:33:10;6.50;99.90
8676;DHT22;4375;52.486;13.424;2024-03-23T09:35:40;6.30;99.90
8676;DHT22;4375;52.486;13.424;2024-03-23T09:38:06;6.30;99.90
8676;DHT22;4375;52.486;13.424;2024-03-23T09:40:41;6.30;99.90
8676;DHT22;4375;52.486;13.424;2024-03-23T09:43:12;6.20;99.90
8676;DHT22;4375;52.486;13.424;2024-03-23T09:45:41;6.20;99.90
8676;DHT22;4375;52.486;13.424;2024-03-23T09:48:08;6.40;99.90
8676;DHT22;4375;52.486;13.424;2024-03-23T09:50:44;6.20;99.90
8676;DHT22;4375;52.486;13.424;2024-03-23T09:53:11;6.20;99.90
8676;DHT22;4375;52.486;13.424;2024-03-23T09:55:37;6.30;99.90
8676;DHT22;4375;52.486;13.424;2024-03-23T09:58:03;6.40;99.90
8676;DHT22;4375;52.486;13.424;2024-03-23T10:00:30;6.50;99.90
8676;DHT22;4375;52.486;13.424;2024-03-23T10:02:56;6.60;99.90
8676;DHT22;4375;52.486;13.424;2024-03-23T10:05:27;6.30;99.90
8676;DHT22;4375;52.486;13.424;2024-03-23T10:07:53;6.40;99.90
8676;DHT22;4375;52.486;13.424;2024-03-23T10:10:19;6.40;99.90
8676;DHT22;4375;52.486;13.424;2024-03-23T10:12:45;6.20;99.90
8676;DHT22;4375;52.486;13.424;2024-03-23T10:15:24;6.10;99.90
8676;DHT22;4375;52.486;13.424;2024-03-23T10:17:50;6.30;99.90
8676;DHT22;4375;52.486;13.424;2024-03-23T10:20:23;6.30;99.90
8676;DHT22;4375;52.486;13.424;2024-03-23T10:22:50;6.30;99.90
8676;DHT22;4375;52.486;13.424;2024-03-23T10:25:17;6.30;99.90
8676;DHT22;4375;52.486;13.424;2024-03-23T10:27:42;6.20;99.90
8676;DHT22;4375;52.486;13.424;2024-03-23T10:30:13;6.10;99.90
8676;DHT22;4375;52.486;13.424;2024-03-23T10:32:42;6.00;99.90
8676;DHT22;4375;52.486;13.424;2024-03-23T10:35:17;6.10;99.90
8676;DHT22;4375;52.486;13.424;2024-03-23T10:37:49;6.20;99.90
8676;DHT22;4375;52.486;13.424;2024-03-23T10:40:17;6.20;99.90
8676;DHT22;4375;52.486;13.424;2024-03-23T10:42:44;6.30;99.90
8676;DHT22;4375;52.486;13.424;2024-03-23T10:45:12;6.30;99.90
8676;DHT22;4375;52.486;13.424;2024-03-23T10:47:38;6.40;99.90
8676;DHT22;4375;52.486;13.424;2024-03-23T10:50:04;6.50;99.90
8676;DHT22;4375;52.486;13.424;2024-03-23T10:52:32;6.50;99.90
8676;DHT22;4375;52.486;13.424;2024-03-23T10:54:59;6.50;99.90
8676;DHT22;4375;52.486;13.424;2024-03-23T10:57:55;6.50;99.90
8676;DHT22;4375;52.486;13.424;2024-03-23T11:00:24;6.50;99.90
8676;DHT22;4375;52.486;13.424;2024-03-23T11:02:52;6.70;99.90
8676;DHT22;4375;52.486;13.424;2024-03-23T11:07:50;6.80;99.90
8676;DHT22;4375;52.486;13.424;2024-03-23T11:10:32;6.90;99.90
8676;DHT22;4375;52.486;13.424;2024-03-23T11:13:21;7.00;99.90
8676;DHT22;4375;52.486;13.424;2024-03-23T11:15:47;7.00;99.90
8676;DHT22;4375;52.486;13.424;2024-03-23T11:18:20;7.00;99.90
8676;DHT22;4375;52.486;13.424;2024-03-23T11:20:46;7.10;99.90
8676;DHT22;4375;52.486;13.424;2024-03-23T11:23:27;7.10;99.90
8676;DHT22;4375;52.486;13.424;2024-03-23T11:25:52;7.10;99.90
8676;DHT22;4375;52.486;13.424;2024-03-23T11:28:18;7.20;99.90
8676;DHT22;4375;52.486;13.424;2024-03-23T11:30:44;7.30;99.90
8676;DHT22;4375;52.486;13.424;2024-03-23T11:33:09;7.40;99.90
8676;DHT22;4375;52.486;13.424;2024-03-23T11:35:38;7.50;99.90
8676;DHT22;4375;52.486;13.424;2024-03-23T11:43:05;7.50;99.90
8676;DHT22;4375;52.486;13.424;2024-03-23T11:45:39;7.70;99.90
8676;DHT22;4375;52.486;13.424;2024-03-23T11:48:12;7.80;99.90
8676;DHT22;4375;52.486;13.424;2024-03-23T11:50:43;7.90;99.90
8676;DHT22;4375;52.486;13.424;2024-03-23T11:53:22;7.90;99.90
8676;DHT22;4375;52.486;13.424;2024-03-23T11:55:52;8.10;99.90
8676;DHT22;4375;52.486;13.424;2024-03-23T11:58:22;8.20;99.90
8676;DHT22;4375;52.486;13.424;2024-03-23T12:01:00;8.10;99.90
8676;DHT22;4375;52.486;13.424;2024-03-23T12:03:31;8.10;99.90
8676;DHT22;4375;52.486;13.424;2024-03-23T12:06:02;8.10;99.90
8676;DHT22;4375;52.486;13.424;2024-03-23T12:08:32;8.20;99.90
8676;DHT22;4375;52.486;13.424;2024-03-23T12:11:24;8.10;99.90
8676;DHT22;4375;52.486;13.424;2024-03-23T12:13:51;8.10;99.90
8676;DHT22;4375;52.486;13.424;2024-03-23T12:16:19;8.00;99.90
8676;DHT22;4375;52.486;13.424;2024-03-23T12:18:48;8.00;99.90
8676;DHT22;4375;52.486;13.424;2024-03-23T12:21:17;8.00;99.90
8676;DHT22;4375;52.486;13.424;2024-03-23T12:23:43;7.80;99.90
8676;DHT22;4375;52.486;13.424;2024-03-23T12:26:10;7.80;99.90
8676;DHT22;4375;52.486;13.424;2024-03-23T12:28:37;7.60;99.90
8676;DHT22;4375;52.486;13.424;2024-03-23T12:31:03;7.90;99.90
8676;DHT22;4375;52.486;13.424;2024-03-23T12:33:28;8.00;99.90
8676;DHT22;4375;52.486;13.424;2024-03-23T12:35:54;8.10;99.90
8676;DHT22;4375;52.486;13.424;2024-03-23T12:38:19;8.10;99.90
8676;DHT22;4375;52.486;13.424;2024-03-23T12:40:52;8.20;99.90
8676;DHT22;4375;52.486;13.424;2024-03-23T12:43:18;8.20;99.90
8676;DHT22;4375;52.486;13.424;2024-03-23T12:45:50;8.30;99.90
8676;DHT22;4375;52.486;13.424;2024-03-23T12:48:16;8.40;99.90
8676;DHT22;4375;52.486;13.424;2024-03-23T12:50:42;8.30;99.90
8676;DHT22;4375;52.486;13.424;2024-03-23T12:53:07;8.40;99.90
8676;DHT22;4375;52.486;13.424;2024-03-23T12:55:35;8.50;99.90
8676;DHT22;4375;52.486;13.424;2024-03-23T12:58:01;8.30;99.90
8676;DHT22;4375;52.486;13.424;2024-03-23T13:00:26;8.50;99.90
8676;DHT22;4375;52.486;13.424;2024-03-23T13:02:52;8.10;99.90
8676;DHT22;4375;52.486;13.424;2024-03-23T13:05:17;8.10;99.90
8676;DHT22;4375;52.486;13.424;2024-03-23T13:07:43;8.10;99.90
8676;DHT22;4375;52.486;13.424;2024-03-23T13:10:09;8.20;99.90
8676;DHT22;4375;52.486;13.424;2024-03-23T13:12:34;8.30;99.90
8676;DHT22;4375;52.486;13.424;2024-03-23T13:15:00;8.20;99.90
8676;DHT22;4375;52.486;13.424;2024-03-23T13:17:26;8.20;99.90
8676;DHT22;4375;52.486;13.424;2024-03-23T13:19:53;8.30;99.90
8676;DHT22;4375;52.486;13.424;2024-03-23T13:22:18;8.40;99.90
8676;DHT22;4375;52.486;13.424;2024-03-23T13:24:44;8.50;99.90
8676;DHT22;4375;52.486;13.424;2024-03-23T13:27:10;8.50;99.90
8676;DHT22;4375;52.486;13.424;2024-03-23T13:29:36;8.70;99.90
8676;DHT22;4375;52.486;13.424;2024-03-23T13:32:03;8.90;99.90
8676;DHT22;4375;52.486;13.424;2024-03-23T13:34:29;9.10;99.90
8676;DHT22;4375;52.486;13.424;2024-03-23T13:36:55;8.90;99.90
8676;DHT22;4375;52.486;13.424;2024-03-23T13:39:23;9.00;99.90
8676;DHT22;4375;52.486;13.424;2024-03-23T13:41:49;8.90;99.90
8676;DHT22;4375;52.486;13.424;2024-03-23T13:44:15;8.90;99.90
8676;DHT22;4375;52.486;13.424;2024-03-23T13:46:42;8.70;99.90
8676;DHT22;4375;52.486;13.424;2024-03-23T13:49:45;8.70;99.90
8676;DHT22;4375;52.486;13.424;2024-03-23T13:52:05;8.60;99.90
8676;DHT22;4375;52.486;13.424;2024-03-23T13:54:32;8.60;99.90
8676;DHT22;4375;52.486;13.424;2024-03-23T13:56:57;8.50;99.90
8676;DHT22;4375;52.486;13.424;2024-03-23T13:59:23;8.70;99.90
8676;DHT22;4375;52.486;13.424;2024-03-23T14:01:50;8.80;99.90
8676;DHT22;4375;52.486;13.424;2024-03-23T14:04:16;8.80;99.90
8676;DHT22;4375;52.486;13.424;2024-03-23T14:06:45;8.80;99.90
8676;DHT22;4375;52.486;13.424;2024-03-23T14:09:11;8.90;99.90
8676;DHT22;4375;52.486;13.424;2024-03-23T14:11:37;8.90;99.90
8676;DHT22;4375;52.486;13.424;2024-03-23T14:14:03;9.00;99.90
8676;DHT22;4375;52.486;13.424;2024-03-23T14:16:32;9.10;99.90
8676;DHT22;4375;52.486;13.424;2024-03-23T14:18:58;9.00;99.90
8676;DHT22;4375;52.486;13.424;2024-03-23T14:21:23;9.00;99.90
8676;DHT22;4375;52.486;13.424;2024-03-23T14:23:49;9.10;99.90
8676;DHT22;4375;52.486;13.424;2024-03-23T14:26:15;9.00;99.90
8676;DHT22;4375;52.486;13.424;2024-03-23T14:28:40;8.80;99.90
8676;DHT22;4375;52.486;13.424;2024-03-23T14:31:06;8.80;99.90
8676;DHT22;4375;52.486;13.424;2024-03-23T14:33:38;8.90;99.90
8676;DHT22;4375;52.486;13.424;2024-03-23T14:36:07;8.90;99.90
8676;DHT22;4375;52.486;13.424;2024-03-23T14:38:38;9.00;99.90
8676;DHT22;4375;52.486;13.424;2024-03-23T14:41:04;9.20;99.90
8676;DHT22;4375;52.486;13.424;2024-03-23T14:43:30;9.50;99.90
8676;DHT22;4375;52.486;13.424;2024-03-23T14:46:12;9.30;99.90
8676;DHT22;4375;52.486;13.424;2024-03-23T14:48:45;9.30;99.90
8676;DHT22;4375;52.486;13.424;2024-03-23T14:51:12;9.10;99.90
8676;DHT22;4375;52.486;13.424;2024-03-23T14:53:41;9.00;99.90
8676;DHT22;4375;52.486;13.424;2024-03-23T14:56:10;8.80;99.90
8676;DHT22;4375;52.486;13.424;2024-03-23T14:58:40;8.70;99.90
8676;DHT22;4375;52.486;13.424;2024-03-23T15:01:07;8.50;99.90
8676;DHT22;4375;52.486;13.424;2024-03-23T15:03:42;8.20;99.90
8676;DHT22;4375;52.486;13.424;2024-03-23T15:06:09;7.80;99.90
8676;DHT22;4375;52.486;13.424;2024-03-23T15:09:01;7.60;99.90
8676;DHT22;4375;52.486;13.424;2024-03-23T15:11:26;7.80;99.90
8676;DHT22;4375;52.486;13.424;2024-03-23T15:13:52;8.00;99.90
8676;DHT22;4375;52.486;13.424;2024-03-23T15:16:17;8.00;99.90
8676;DHT22;4375;52.486;13.424;2024-03-23T15:18:45;8.20;99.90
8676;DHT22;4375;52.486;13.424;2024-03-23T15:21:11;8.30;99.90
8676;DHT22;4375;52.486;13.424;2024-03-23T15:23:37;8.40;99.90
8676;DHT22;4375;52.486;13.424;2024-03-23T15:26:03;8.50;99.90
8676;DHT22;4375;52.486;13.424;2024-03-23T15:28:31;8.00;99.90
8676;DHT22;4375;52.486;13.424;2024-03-23T15:31:28;7.90;99.90
8676;DHT22;4375;52.486;13.424;2024-03-23T15:33:56;7.90;99.90
8676;DHT22;4375;52.486;13.424;2024-03-23T15:36:22;7.90;99.90
8676;DHT22;4375;52.486;13.424;2024-03-23T15:38:48;7.90;99.90
8676;DHT22;4375;52.486;13.424;2024-03-23T15:41:14;7.80;99.90
8676;DHT22;4375;52.486;13.424;2024-03-23T15:43:40;7.80;99.90
8676;DHT22;4375;52.486;13.424;2024-03-23T15:46:07;7.80;99.90
8676;DHT22;4375;52.486;13.424;2024-03-23T15:48:33;7.80;99.90
8676;DHT22;4375;52.486;13.424;2024-03-23T15:51:01;7.80;99.90
8676;DHT22;4375;52.486;13.424;2024-03-23T15:53:27;7.70;99.90
8676;DHT22;4375;52.486;13.424;2024-03-23T15:55:54;7.80;99.90
8676;DHT22;4375;52.486;13.424;2024-03-23T15:58:20;7.80;99.90
8676;DHT22;4375;52.486;13.424;2024-03-23T16:03:21;7.80;99.90
8676;DHT22;4375;52.486;13.424;2024-03-23T16:05:51;7.80;99.90
8676;DHT22;4375;52.486;13.424;2024-03-23T16:08:17;7.80;99.90
8676;DHT22;4375;52.486;13.424;2024-03-23T16:10:43;7.80;99.90
8676;DHT22;4375;52.486;13.424;2024-03-23T16:13:08;7.80;99.90
8676;DHT22;4375;52.486;13.424;2024-03-23T16:15:34;7.80;99.90
8676;DHT22;4375;52.486;13.424;2024-03-23T16:17:59;7.80;99.90
8676;DHT22;4375;52.486;13.424;2024-03-23T16:20:25;7.80;99.90
8676;DHT22;4375;52.486;13.424;2024-03-23T16:22:50;7.80;99.90
8676;DHT22;4375;52.486;13.424;2024-03-23T16:25:16;7.80;99.90
8676;DHT22;4375;52.486;13.424;2024-03-23T16:27:41;7.70;99.90
8676;DHT22;4375;52.486;13.424;2024-03-23T16:30:07;7.70;99.90
8676;DHT22;4375;52.486;13.424;2024-03-23T16:32:33;7.70;99.90
8676;DHT22;4375;52.486;13.424;2024-03-23T16:35:03;7.70;99.90
8676;DHT22;4375;52.486;13.424;2024-03-23T16:37:28;7.70;99.90
8676;DHT22;4375;52.486;13.424;2024-03-23T16:39:54;7.60;99.90
8676;DHT22;4375;52.486;13.424;2024-03-23T16:42:19;7.60;99.90
8676;DHT22;4375;52.486;13.424;2024-03-23T16:44:45;7.50;99.90
8676;DHT22;4375;52.486;13.424;2024-03-23T16:47:10;7.60;99.90
8676;DHT22;4375;52.486;13.424;2024-03-23T16:49:36;7.50;99.90
8676;DHT22;4375;52.486;13.424;2024-03-23T16:52:02;7.50;99.90
8676;DHT22;4375;52.486;13.424;2024-03-23T16:54:28;7.60;99.90
8676;DHT22;4375;52.486;13.424;2024-03-23T16:56:54;7.50;99.90
8676;DHT22;4375;52.486;13.424;2024-03-23T16:59:19;7.50;99.90
8676;DHT22;4375;52.486;13.424;2024-03-23T17:01:45;7.60;99.90
8676;DHT22;4375;52.486;13.424;2024-03-23T17:04:11;7.60;99.90
8676;DHT22;4375;52.486;13.424;2024-03-23T17:06:37;7.50;99.90